Time;durP1;ratioP1;P1;durP2;ratioP2;P2;SDS_P1;SDS_P2;PMS_P1;PMS_P2;Temp;Humidity;BMP_temperature;BMP_pressure;BME280_temperature;BME280_humidity;BME280_pressure;Samples;Min_cycle;Max_cycle;Signal;HPM_P1;HPM_P2
2022/11/24 00:01:07;;;;;;;0.40;0.40;;;27.80;70.10;;;;;;5063234;28;20180;-67
2022/11/24 00:03:35;;;;;;;1.13;0.23;;;27.90;64.20;;;;;;5058985;28;20200;-67
2022/11/24 00:06:08;;;;;;;2.23;0.37;;;27.80;68.60;;;;;;5075153;28;20585;-69
2022/11/24 00:08:36;;;;;;;1.70;0.27;;;27.70;66.10;;;;;;5071933;28;20238;-69
2022/11/24 00:11:12;;;;;;;2.30;0.50;;;27.60;65.00;;;;;;5071648;28;20198;-70
2022/11/24 00:13:40;;;;;;;1.90;0.50;;;27.90;62.80;;;;;;5075676;28;20176;-67
2022/11/24 00:16:11;;;;;;;1.23;0.50;;;28.00;64.20;;;;;;5075259;28;20196;-67
2022/11/24 00:18:40;;;;;;;2.10;0.37;;;28.40;59.80;;;;;;5071865;28;20241;-67
2022/11/24 00:21:08;;;;;;;0.93;0.30;;;28.10;61.60;;;;;;5075340;28;20188;-66
2022/11/24 00:23:35;;;;;;;3.17;0.60;;;28.00;59.80;;;;;;5075480;28;20172;-67
2022/11/24 00:26:04;;;;;;;2.07;0.30;;;28.50;63.60;;;;;;5075462;28;20632;-68
2022/11/24 00:28:33;;;;;;;0.20;0.20;;;28.20;58.40;;;;;;5075554;28;20180;-66
2022/11/24 00:31:00;;;;;;;0.60;0.40;;;27.70;56.20;;;;;;5075789;28;20263;-68
2022/11/24 00:33:28;;;;;;;2.57;0.40;;;27.70;57.80;;;;;;5075565;28;20168;-67
2022/11/24 00:35:59;;;;;;;0.70;0.20;;;28.10;61.20;;;;;;5075428;28;20172;-67
2022/11/24 00:38:27;;;;;;;0.70;0.30;;;28.90;59.30;;;;;;5075396;28;20707;-66
2022/11/24 00:40:54;;;;;;;0.10;0.10;;;28.50;65.70;;;;;;5075386;28;20167;-66
2022/11/24 00:43:22;;;;;;;4.97;0.27;;;29.30;71.60;;;;;;5075260;28;20513;-67
2022/11/24 00:45:49;;;;;;;6.20;0.40;;;28.90;57.20;;;;;;5075240;28;20208;-67
2022/11/24 00:48:16;;;;;;;0.70;0.30;;;29.50;57.80;;;;;;5075251;28;20167;-66
2022/11/24 00:50:44;;;;;;;1.70;0.20;;;29.20;53.80;;;;;;5090624;28;20707;-68
2022/11/24 00:53:11;;;;;;;1.43;0.27;;;29.20;53.00;;;;;;5074929;28;20181;-67
2022/11/24 00:55:39;;;;;;;2.20;0.50;;;29.50;53.70;;;;;;5075040;28;20172;-69
2022/11/24 00:58:06;;;;;;;2.20;0.33;;;29.50;54.70;;;;;;5075066;28;20246;-70
2022/11/24 01:00:34;;;;;;;1.53;0.53;;;29.70;51.20;;;;;;5074911;28;20191;-70
2022/11/24 01:03:01;;;;;;;0.80;0.20;;;29.50;54.40;;;;;;5074696;28;20182;-68
2022/11/24 01:05:28;;;;;;;5.03;0.30;;;29.80;53.90;;;;;;5074573;28;20230;-71
2022/11/24 01:07:56;;;;;;;4.33;0.57;;;29.90;57.30;;;;;;5074703;28;20179;-67
2022/11/24 01:10:23;;;;;;;0.40;0.30;;;29.80;58.20;;;;;;5074624;28;20183;-68
2022/11/24 01:12:50;;;;;;;0.67;0.30;;;29.60;56.00;;;;;;5074577;28;20207;-68
2022/11/24 01:15:18;;;;;;;2.80;0.30;;;29.60;54.40;;;;;;5074647;28;20180;-69
2022/11/24 01:17:45;;;;;;;0.53;0.20;;;29.80;55.60;;;;;;5074516;28;20246;-69
2022/11/24 01:20:13;;;;;;;3.17;0.30;;;29.70;50.70;;;;;;5074389;28;20207;-67
2022/11/24 01:22:41;;;;;;;1.30;0.40;;;29.50;51.00;;;;;;5074281;28;20673;-68
2022/11/24 01:25:11;;;;;;;1.40;0.50;;;29.30;50.80;;;;;;5074315;28;20224;-68
2022/11/24 01:27:39;;;;;;;1.17;0.40;;;29.20;51.30;;;;;;5074447;28;20207;-68
2022/11/24 01:30:07;;;;;;;1.23;0.20;;;29.80;56.30;;;;;;5073871;28;20184;-68
2022/11/24 01:32:37;;;;;;;8.13;0.57;;;28.90;50.30;;;;;;5074613;28;20176;-70
2022/11/24 01:35:06;;;;;;;0.40;0.30;;;28.50;52.30;;;;;;5074353;28;20191;-69
2022/11/24 01:37:33;;;;;;;2.37;0.50;;;28.90;54.50;;;;;;5074322;28;20544;-68
2022/11/24 01:40:00;;;;;;;1.03;0.30;;;28.70;51.00;;;;;;5074204;28;20167;-72
2022/11/24 01:42:48;;;;;;;4.23;0.33;;;29.00;55.70;;;;;;5073762;28;20179;-68
2022/11/24 01:45:39;;;;;;;2.87;0.20;;;29.00;51.50;;;;;;5089526;28;20199;-68
2022/11/24 01:48:13;;;;;;;3.37;0.37;;;29.00;52.30;;;;;;5074232;28;20687;-68
2022/11/24 01:50:42;;;;;;;0.70;0.20;;;28.90;50.70;;;;;;5073735;28;20584;-66
2022/11/24 01:53:12;;;;;;;2.27;0.30;;;29.00;50.50;;;;;;5073863;28;20175;-67
2022/11/24 01:55:40;;;;;;;1.37;0.30;;;29.10;50.30;;;;;;5073843;28;20168;-66
2022/11/24 01:58:21;;;;;;;2.73;0.30;;;29.60;55.40;;;;;;5073806;28;20170;-66
2022/11/24 02:00:48;;;;;;;0.80;0.50;;;30.10;59.60;;;;;;5074170;28;20199;-67
2022/11/24 02:03:21;;;;;;;0.87;0.20;;;29.70;56.70;;;;;;5073418;28;20168;-67
2022/11/24 02:06:02;;;;;;;0.97;0.30;;;30.30;63.20;;;;;;5089017;28;20713;-68
2022/11/24 02:08:58;;;;;;;2.37;0.30;;;30.30;53.50;;;;;;5073685;28;20309;-67
2022/11/24 02:11:33;;;;;;;0.63;0.30;;;30.60;48.50;;;;;;5073759;28;20241;-67
2022/11/24 02:14:01;;;;;;;2.30;0.47;;;30.90;50.30;;;;;;5073726;28;20175;-67
2022/11/24 02:16:29;;;;;;;0.63;0.20;;;30.90;47.90;;;;;;5073854;28;20186;-68
2022/11/24 02:18:57;;;;;;;2.87;0.30;;;30.90;46.90;;;;;;5073636;28;20172;-67
2022/11/24 02:21:24;;;;;;;1.77;0.60;;;30.70;47.80;;;;;;5073466;28;20183;-68
2022/11/24 02:24:17;;;;;;;1.10;0.30;;;30.60;45.20;;;;;;5073483;28;20645;-68
2022/11/24 02:26:46;;;;;;;2.53;0.30;;;30.40;47.80;;;;;;5073527;28;20208;-68
2022/11/24 02:29:14;;;;;;;1.03;0.37;;;30.10;47.00;;;;;;5073183;28;20168;-67
2022/11/24 02:31:51;;;;;;;0.57;0.20;;;29.70;45.70;;;;;;5088956;28;20180;-67
2022/11/24 02:34:19;;;;;;;2.00;0.30;;;29.30;46.80;;;;;;5073210;28;20638;-69
2022/11/24 02:36:46;;;;;;;1.40;0.30;;;29.30;45.60;;;;;;5073184;28;20180;-68
2022/11/24 02:39:15;;;;;;;3.90;0.30;;;29.70;49.10;;;;;;5073086;28;20170;-68
2022/11/24 02:41:55;;;;;;;3.00;0.30;;;30.20;46.70;;;;;;5072863;28;20175;-68
2022/11/24 02:44:27;;;;;;;0.20;0.20;;;30.20;48.40;;;;;;5073581;28;20167;-68
2022/11/24 02:47:07;;;;;;;1.23;0.30;;;30.40;46.90;;;;;;5073248;28;20215;-67
2022/11/24 02:49:34;;;;;;;1.90;0.20;;;30.00;43.80;;;;;;5073508;28;20668;-68
2022/11/24 02:52:03;;;;;;;1.03;0.27;;;30.10;49.70;;;;;;5073096;28;20180;-68
2022/11/24 02:54:30;;;;;;;3.00;0.57;;;30.30;53.40;;;;;;5073305;28;20298;-68
2022/11/24 02:56:58;;;;;;;2.40;0.40;;;30.70;43.20;;;;;;5073187;28;20269;-68
2022/11/24 02:59:25;;;;;;;1.73;0.30;;;30.40;45.10;;;;;;5073159;28;20523;-68
2022/11/24 03:01:52;;;;;;;1.20;0.30;;;30.20;41.10;;;;;;5072777;28;20172;-68
2022/11/24 03:04:20;;;;;;;2.47;0.50;;;30.00;45.40;;;;;;5072726;28;20228;-67
2022/11/24 03:06:47;;;;;;;1.00;0.40;;;30.20;44.50;;;;;;5072909;28;20215;-67
2022/11/24 03:09:15;;;;;;;3.00;1.10;;;30.30;43.90;;;;;;5073028;28;20219;-66
2022/11/24 03:11:42;;;;;;;29.17;8.30;;;30.40;42.50;;;;;;5072719;28;20180;-66
2022/11/24 03:14:10;;;;;;;3.50;0.30;;;30.60;44.40;;;;;;5072751;28;20168;-66
2022/11/24 03:16:37;;;;;;;1.43;0.47;;;30.90;41.30;;;;;;5072829;28;20176;-66
2022/11/24 03:19:05;;;;;;;0.10;0.10;;;31.20;42.90;;;;;;5072863;28;20516;-69
2022/11/24 03:21:32;;;;;;;3.70;0.23;;;31.00;38.40;;;;;;5072626;28;20254;-67
2022/11/24 03:24:00;;;;;;;6.57;0.30;;;30.80;39.80;;;;;;5072842;28;20176;-67
2022/11/24 03:26:27;;;;;;;1.90;0.27;;;30.90;43.90;;;;;;5072788;28;20285;-67
2022/11/24 03:28:57;;;;;;;0.40;0.40;;;31.00;43.00;;;;;;5072791;28;20243;-67
2022/11/24 03:31:24;;;;;;;1.13;0.43;;;31.20;40.40;;;;;;5072661;28;20180;-67
2022/11/24 03:33:52;;;;;;;0.67;0.20;;;31.40;41.60;;;;;;5072664;28;20176;-67
2022/11/24 03:36:19;;;;;;;6.20;1.00;;;31.50;42.20;;;;;;5072471;28;20172;-68
2022/11/24 03:38:47;;;;;;;7.73;0.87;;;31.40;42.50;;;;;;5072680;28;20172;-67
2022/11/24 03:41:14;;;;;;;5.33;1.03;;;30.80;43.40;;;;;;5072246;28;20176;-67
2022/11/24 03:43:41;;;;;;;3.53;1.10;;;30.40;46.90;;;;;;5072238;28;20168;-67
2022/11/24 03:46:09;;;;;;;3.47;0.93;;;30.30;49.30;;;;;;5071729;28;20208;-72
2022/11/24 03:48:36;;;;;;;4.07;0.93;;;30.00;46.10;;;;;;5070484;28;20234;-73
2022/11/24 03:51:37;;;;;;;1.63;0.90;;;30.00;50.80;;;;;;5071510;28;20190;-72
2022/11/24 03:54:05;;;;;;;5.13;0.80;;;30.10;52.40;;;;;;5042890;28;20539;-74
2022/11/24 03:56:33;;;;;;;2.93;0.90;;;30.10;57.40;;;;;;5075767;28;20184;-73
2022/11/24 03:59:00;;;;;;;3.77;0.80;;;29.50;51.70;;;;;;5075598;28;20267;-73
2022/11/24 04:01:27;;;;;;;4.13;0.80;;;29.00;53.60;;;;;;5075815;28;20172;-73
2022/11/24 04:03:55;;;;;;;3.60;0.90;;;28.30;55.30;;;;;;5075820;28;20208;-74
2022/11/24 04:06:22;;;;;;;4.13;1.20;;;28.40;61.80;;;;;;5075749;28;20685;-73
2022/11/24 04:08:50;;;;;;;4.83;0.83;;;29.20;66.10;;;;;;5075047;28;20184;-72
2022/11/24 04:14:02;;;;;;;2.77;0.60;;;29.50;62.70;;;;;;5074996;28;20191;-71
2022/11/24 04:16:30;;;;;;;6.23;1.07;;;30.00;61.00;;;;;;5075059;28;20549;-72
2022/11/24 04:18:57;;;;;;;3.17;0.93;;;30.00;62.50;;;;;;5074373;28;20183;-74
2022/11/24 04:21:25;;;;;;;5.97;1.03;;;29.80;62.70;;;;;;5075506;28;20187;-73
2022/11/24 04:23:52;;;;;;;3.33;1.03;;;29.80;60.10;;;;;;5075247;28;20168;-74
2022/11/24 04:26:20;;;;;;;4.17;0.97;;;29.60;68.80;;;;;;5071681;28;20211;-73
2022/11/24 04:28:47;;;;;;;4.00;1.03;;;29.60;67.70;;;;;;5072163;28;20649;-71
2022/11/24 04:31:15;;;;;;;3.53;1.27;;;29.20;62.70;;;;;;5064418;28;20168;-73
2022/11/24 04:33:42;;;;;;;2.03;0.80;;;29.10;60.30;;;;;;5071763;28;20203;-73
2022/11/24 04:36:10;;;;;;;3.47;1.00;;;28.60;63.80;;;;;;5063686;28;20255;-73
2022/11/24 04:38:37;;;;;;;3.37;1.10;;;28.70;68.30;;;;;;5053476;28;20188;-73
2022/11/24 04:41:05;;;;;;;1.47;0.67;;;28.90;69.10;;;;;;5052668;28;20176;-73
2022/11/24 04:43:33;;;;;;;2.77;0.90;;;29.20;68.60;;;;;;5053718;28;20181;-73
2022/11/24 04:46:01;;;;;;;5.47;0.83;;;29.20;64.80;;;;;;5053821;28;20293;-72
2022/11/24 04:48:29;;;;;;;4.47;0.80;;;29.20;71.60;;;;;;5054222;28;20315;-72
2022/11/24 04:50:56;;;;;;;3.87;0.83;;;29.10;63.60;;;;;;5073447;28;20199;-74
2022/11/24 04:53:24;;;;;;;4.50;1.10;;;28.90;61.10;;;;;;5073099;28;20274;-74
2022/11/24 04:55:52;;;;;;;4.40;0.83;;;28.80;66.00;;;;;;5072287;28;20557;-73
2022/11/24 04:58:19;;;;;;;4.10;0.80;;;28.80;66.20;;;;;;5055801;28;20180;-73
2022/11/24 05:00:47;;;;;;;3.37;0.90;;;29.00;70.10;;;;;;5061058;28;20211;-74
2022/11/24 05:03:14;;;;;;;6.23;0.80;;;28.70;68.00;;;;;;5073223;28;20232;-73
2022/11/24 05:05:42;;;;;;;1.70;0.90;;;28.60;73.40;;;;;;5073864;28;20227;-73
2022/11/24 05:08:09;;;;;;;3.13;0.80;;;28.70;70.60;;;;;;5073229;28;20184;-75
2022/11/24 05:10:36;;;;;;;1.87;1.13;;;28.80;68.90;;;;;;5072828;28;20691;-73
2022/11/24 05:13:08;;;;;;;4.63;0.90;;;28.70;73.90;;;;;;5064810;28;20172;-73
2022/11/24 05:15:38;;;;;;;5.37;1.10;;;28.50;71.40;;;;;;5070190;28;20342;-73
2022/11/24 05:18:11;;;;;;;3.20;0.83;;;28.30;72.90;;;;;;5055822;28;20173;-73
2022/11/24 05:20:39;;;;;;;7.33;1.40;;;28.20;76.90;;;;;;5067400;28;20203;-72
2022/11/24 05:23:07;;;;;;;5.73;1.40;;;28.10;78.60;;;;;;5052401;28;20547;-73
2022/11/24 05:25:35;;;;;;;2.10;0.90;;;27.90;79.90;;;;;;5061949;28;20211;-74
2022/11/24 05:28:05;;;;;;;3.87;0.70;;;28.10;77.60;;;;;;5072626;28;20180;-75
2022/11/24 05:30:32;;;;;;;5.07;1.00;;;28.10;83.90;;;;;;5087532;28;20198;-74
2022/11/24 05:33:08;;;;;;;4.33;1.10;;;28.20;82.00;;;;;;5072421;28;20213;-75
2022/11/24 05:35:36;;;;;;;3.07;1.07;;;28.00;80.60;;;;;;5088234;28;20214;-74
2022/11/24 05:38:04;;;;;;;3.17;0.90;;;27.90;83.30;;;;;;5072596;28;20168;-73
2022/11/24 05:40:32;;;;;;;5.57;0.70;;;27.90;85.50;;;;;;5081358;28;20283;-74
2022/11/24 05:42:59;;;;;;;3.33;0.93;;;27.40;90.50;;;;;;5072311;28;20184;-73
2022/11/24 05:45:26;;;;;;;1.67;0.80;;;27.40;92.80;;;;;;5072536;28;20237;-72
2022/11/24 05:47:54;;;;;;;7.67;0.97;;;27.40;93.10;;;;;;5072557;28;20171;-74
2022/11/24 05:50:22;;;;;;;5.43;0.90;;;27.30;92.70;;;;;;5073175;28;20180;-75
2022/11/24 05:52:50;;;;;;;2.47;0.70;;;27.40;92.50;;;;;;5067059;28;20176;-72
2022/11/24 05:55:18;;;;;;;3.70;0.90;;;27.30;91.20;;;;;;5050677;28;20177;-73
2022/11/24 05:57:46;;;;;;;4.57;1.00;;;27.30;93.80;;;;;;5053357;28;20188;-73
2022/11/24 06:00:16;;;;;;;4.70;0.90;;;27.40;94.30;;;;;;5072022;28;20182;-71
2022/11/24 06:02:44;;;;;;;5.23;0.80;;;27.30;96.80;;;;;;5061939;28;20225;-74
2022/11/24 06:05:11;;;;;;;2.37;1.17;;;27.30;97.70;;;;;;5053316;28;20233;-73
2022/11/24 06:07:39;;;;;;;3.73;1.07;;;27.30;98.40;;;;;;5059413;28;20249;-74
2022/11/24 06:10:06;;;;;;;2.13;0.90;;;27.10;99.60;;;;;;5073412;28;20183;-71
2022/11/24 06:12:34;;;;;;;1.67;0.90;;;27.20;99.90;;;;;;5071504;28;20187;-72
2022/11/24 06:15:01;;;;;;;3.67;1.00;;;26.70;99.90;;;;;;5073737;28;20172;-73
2022/11/24 06:17:29;;;;;;;3.57;1.00;;;26.40;99.90;;;;;;5057601;28;20184;-72
2022/11/24 06:19:56;;;;;;;2.90;1.00;;;26.20;99.90;;;;;;5054071;28;20534;-73
2022/11/24 06:22:23;;;;;;;6.33;1.10;;;26.50;99.90;;;;;;5054744;28;20708;-71
2022/11/24 06:24:51;;;;;;;4.40;1.20;;;26.50;99.90;;;;;;5056009;28;20237;-73
2022/11/24 06:27:18;;;;;;;3.03;1.10;;;26.50;99.90;;;;;;5055546;28;20176;-72
2022/11/24 06:29:46;;;;;;;3.97;1.10;;;26.40;99.90;;;;;;5054502;28;20168;-73
2022/11/24 06:32:14;;;;;;;2.20;0.80;;;26.20;99.90;;;;;;5054156;28;20298;-72
2022/11/24 06:34:41;;;;;;;3.17;1.30;;;26.20;99.90;;;;;;5052655;28;20630;-73
2022/11/24 06:37:09;;;;;;;5.50;1.30;;;26.10;99.90;;;;;;5052897;28;20180;-73
2022/11/24 06:39:36;;;;;;;10.10;1.37;;;25.70;99.90;;;;;;5053207;28;20234;-73
2022/11/24 06:42:04;;;;;;;4.03;1.10;;;25.80;99.90;;;;;;5071801;28;20211;-73
2022/11/24 06:44:31;;;;;;;6.60;1.10;;;26.00;99.90;;;;;;5072393;28;20645;-70
2022/11/24 06:46:59;;;;;;;6.53;1.33;;;25.90;99.90;;;;;;5049607;28;20220;-72
2022/11/24 06:49:28;;;;;;;4.00;1.10;;;25.80;99.90;;;;;;5052492;28;20176;-72
2022/11/24 06:51:55;;;;;;;7.57;1.30;;;25.90;99.90;;;;;;5053714;28;20207;-72
2022/11/24 06:54:23;;;;;;;5.07;1.00;;;26.00;99.90;;;;;;5071769;28;20660;-73
2022/11/24 06:56:54;;;;;;;3.57;1.10;;;25.70;99.90;;;;;;5060903;28;20196;-73
2022/11/24 06:59:22;;;;;;;2.97;0.87;;;25.50;99.90;;;;;;5051222;28;20176;-71
2022/11/24 07:01:49;;;;;;;3.93;1.40;;;25.60;99.90;;;;;;5054214;28;20234;-72
2022/11/24 07:04:17;;;;;;;5.07;1.00;;;25.60;99.90;;;;;;5086545;28;20302;-71
2022/11/24 07:06:45;;;;;;;6.23;1.07;;;25.30;99.90;;;;;;5086934;28;20235;-72
2022/11/24 07:09:13;;;;;;;3.27;1.17;;;25.10;99.90;;;;;;5057230;28;20603;-73
2022/11/24 07:11:41;;;;;;;6.90;1.73;;;24.90;99.90;;;;;;5070646;28;20250;-73
2022/11/24 07:14:09;;;;;;;5.23;1.33;;;25.00;99.90;;;;;;5071585;28;20605;-73
2022/11/24 07:16:38;;;;;;;4.70;1.30;;;24.90;99.90;;;;;;5071331;28;20278;-74
2022/11/24 07:19:05;;;;;;;8.17;1.53;;;24.80;99.90;;;;;;5071281;28;20195;-73
2022/11/24 07:21:32;;;;;;;4.67;1.80;;;24.80;99.90;;;;;;5070923;28;20184;-72
2022/11/24 07:24:00;;;;;;;7.67;1.40;;;24.90;99.90;;;;;;5031310;28;20220;-73
2022/11/24 07:26:27;;;;;;;8.83;1.10;;;24.70;99.90;;;;;;5031394;28;20670;-73
2022/11/24 07:28:55;;;;;;;7.03;1.30;;;24.40;99.90;;;;;;5035122;28;20196;-72
2022/11/24 07:31:26;;;;;;;3.67;1.30;;;24.40;99.90;;;;;;5035291;28;20181;-73
2022/11/24 07:33:54;;;;;;;5.47;1.20;;;24.40;99.90;;;;;;5073656;28;20186;-73
2022/11/24 07:36:23;;;;;;;7.67;1.30;;;24.30;99.90;;;;;;5076450;28;20191;-73
2022/11/24 07:38:51;;;;;;;7.17;1.70;;;24.00;99.90;;;;;;5075664;28;20542;-73
2022/11/24 07:41:19;;;;;;;5.53;1.63;;;23.80;99.90;;;;;;5091614;28;20196;-74
2022/11/24 07:43:47;;;;;;;8.20;2.13;;;23.60;99.90;;;;;;5075249;28;20187;-73
2022/11/24 07:46:17;;;;;;;6.37;1.13;;;23.20;99.90;;;;;;5075072;28;20262;-72
2022/11/24 07:48:45;;;;;;;6.53;1.30;;;23.20;99.90;;;;;;5067419;28;20598;-73
2022/11/24 07:51:13;;;;;;;8.20;1.60;;;23.30;99.90;;;;;;5061997;28;20271;-73
2022/11/24 07:53:40;;;;;;;7.77;1.73;;;23.40;99.90;;;;;;5054816;28;20187;-73
2022/11/24 07:56:09;;;;;;;6.27;2.00;;;23.20;99.90;;;;;;5054528;28;20188;-70
2022/11/24 07:58:37;;;;;;;8.37;1.63;;;23.00;99.90;;;;;;5070749;28;20668;-73
2022/11/24 08:01:15;;;;;;;9.63;1.87;;;22.80;99.90;;;;;;5074321;28;20192;-71
2022/11/24 08:03:44;;;;;;;6.43;1.63;;;22.60;99.90;;;;;;5089121;28;20175;-73
2022/11/24 08:06:12;;;;;;;6.60;1.93;;;22.40;99.90;;;;;;5074406;28;20231;-73
2022/11/24 08:08:39;;;;;;;4.33;1.30;;;22.40;99.90;;;;;;5074101;28;20200;-73
2022/11/24 08:11:09;;;;;;;6.67;1.70;;;22.20;99.90;;;;;;5073970;28;20269;-71
2022/11/24 08:13:37;;;;;;;9.03;1.53;;;22.20;99.90;;;;;;5074159;28;20230;-72
2022/11/24 08:16:09;;;;;;;7.03;2.10;;;22.10;99.90;;;;;;5073751;28;20183;-71
2022/11/24 08:18:37;;;;;;;7.33;1.70;;;22.00;99.90;;;;;;5073847;28;20192;-72
2022/11/24 08:21:06;;;;;;;6.50;1.80;;;21.70;99.90;;;;;;5073702;28;20229;-71
2022/11/24 08:23:34;;;;;;;13.50;1.87;;;21.60;99.90;;;;;;5068326;28;20207;-71
2022/11/24 08:26:12;;;;;;;5.00;1.50;;;21.60;99.90;;;;;;5071837;28;20207;-72
2022/11/24 08:28:40;;;;;;;3.40;1.20;;;21.40;99.90;;;;;;5074728;28;20303;-72
2022/11/24 08:31:12;;;;;;;7.33;1.67;;;21.30;99.90;;;;;;5074971;28;20190;-73
2022/11/24 08:33:41;;;;;;;7.17;2.07;;;21.20;99.90;;;;;;5074630;28;20179;-73
2022/11/24 08:36:14;;;;;;;9.03;2.00;;;21.10;99.90;;;;;;5075362;28;20180;-73
2022/11/24 08:38:43;;;;;;;10.50;1.90;;;21.10;99.90;;;;;;5074074;28;20670;-72
2022/11/24 08:41:14;;;;;;;10.43;2.20;;;21.00;99.90;;;;;;5086215;28;20197;-72
2022/11/24 08:43:41;;;;;;;10.93;1.90;;;20.90;99.90;;;;;;5074332;28;20558;-73
2022/11/24 08:46:15;;;;;;;10.43;2.50;;;20.90;99.90;;;;;;5080957;28;20223;-73
2022/11/24 08:48:46;;;;;;;11.70;2.37;;;20.80;99.90;;;;;;5075689;28;20209;-73
2022/11/24 08:51:16;;;;;;;9.90;2.33;;;20.80;99.90;;;;;;5076556;28;20230;-70
2022/11/24 08:53:43;;;;;;;7.23;2.10;;;20.80;99.90;;;;;;5074852;28;20179;-71
2022/11/24 08:56:12;;;;;;;8.03;2.17;;;20.80;99.90;;;;;;5074890;28;20175;-73
2022/11/24 08:58:40;;;;;;;10.00;2.03;;;20.80;99.90;;;;;;5075010;28;20172;-73
2022/11/24 09:01:13;;;;;;;5.47;1.63;;;20.80;99.90;;;;;;5074518;28;20180;-73
2022/11/24 09:03:41;;;;;;;10.70;2.00;;;20.80;99.90;;;;;;5074489;28;20738;-73
2022/11/24 09:06:09;;;;;;;13.53;2.17;;;20.70;99.90;;;;;;5074201;28;20833;-73
2022/11/24 09:08:37;;;;;;;8.63;2.00;;;20.70;99.90;;;;;;5074241;28;20179;-73
2022/11/24 09:11:11;;;;;;;10.17;1.93;;;20.50;99.90;;;;;;5074238;28;20624;-71
2022/11/24 09:13:39;;;;;;;7.70;1.87;;;20.50;99.90;;;;;;5074452;28;20172;-71
2022/11/24 09:16:13;;;;;;;7.23;1.80;;;20.50;99.90;;;;;;5074045;28;20184;-72
2022/11/24 09:18:40;;;;;;;15.13;2.57;;;20.60;99.90;;;;;;5072529;28;20265;-72
2022/11/24 09:21:17;;;;;;;8.90;1.70;;;20.50;99.90;;;;;;5072396;28;20552;-72
2022/11/24 09:23:47;;;;;;;8.60;1.80;;;20.50;99.90;;;;;;5053830;28;20645;-72
2022/11/24 09:26:20;;;;;;;11.70;2.30;;;20.60;99.90;;;;;;5055339;28;20329;-72
2022/11/24 09:28:47;;;;;;;7.23;1.63;;;20.60;99.90;;;;;;5054363;28;20261;-73
2022/11/24 09:31:17;;;;;;;6.97;1.87;;;20.60;99.90;;;;;;5054097;28;20177;-72
2022/11/24 09:33:45;;;;;;;8.77;2.07;;;20.60;99.90;;;;;;5053803;28;20177;-71
2022/11/24 09:36:13;;;;;;;10.83;2.27;;;20.50;99.90;;;;;;5067611;28;20215;-76
2022/11/24 09:38:41;;;;;;;11.10;2.03;;;20.40;99.90;;;;;;5049586;28;20191;-75
2022/11/24 09:41:18;;;;;;;6.87;2.00;;;20.40;99.90;;;;;;5052868;28;20183;-72
2022/11/24 09:44:10;;;;;;;8.23;1.83;;;20.40;99.90;;;;;;5062467;28;20206;-73
2022/11/24 09:46:58;;;;;;;11.20;2.30;;;20.50;99.90;;;;;;5029527;28;20227;-72
2022/11/24 09:50:24;;;;;;;13.30;2.27;;;20.40;99.90;;;;;;5032159;28;20658;-74
2022/11/24 09:53:02;;;;;;;11.70;2.30;;;20.40;99.90;;;;;;5019930;28;20204;-73
2022/11/24 09:55:49;;;;;;;10.53;2.40;;;20.40;99.90;;;;;;5061238;28;20210;-74
2022/11/24 09:58:41;;;;;;;8.30;2.27;;;20.40;99.90;;;;;;5063321;28;20183;-76
2022/11/24 10:01:38;;;;;;;7.67;1.83;;;20.40;99.90;;;;;;5051574;28;20172;-72
2022/11/24 10:04:17;;;;;;;8.30;2.53;;;20.40;99.90;;;;;;5059503;28;20191;-72
2022/11/24 10:07:11;;;;;;;7.17;1.63;;;20.50;99.90;;;;;;5072443;28;20230;-72
2022/11/24 10:09:54;;;;;;;10.20;1.80;;;20.40;99.90;;;;;;5073587;28;20169;-71
2022/11/24 10:12:42;;;;;;;7.00;2.37;;;20.40;99.90;;;;;;5072467;28;20266;-71
2022/11/24 10:15:26;;;;;;;11.43;2.03;;;20.40;99.90;;;;;;5062190;28;20271;-71
2022/11/24 10:18:11;;;;;;;8.87;1.90;;;20.50;99.90;;;;;;5072298;28;20216;-73
2022/11/24 10:20:51;;;;;;;7.13;2.30;;;20.40;99.90;;;;;;5073542;28;20507;-71
2022/11/24 10:23:54;;;;;;;6.83;2.10;;;20.40;99.90;;;;;;5073291;28;20166;-71
2022/11/24 10:26:38;;;;;;;9.00;2.20;;;20.40;99.90;;;;;;5058901;28;20338;-72
2022/11/24 10:29:39;;;;;;;7.10;2.00;;;20.40;99.90;;;;;;5073359;28;20247;-71
2022/11/24 10:32:37;;;;;;;8.30;2.30;;;20.40;99.90;;;;;;5071889;28;20194;-71
2022/11/24 10:35:40;;;;;;;7.23;1.90;;;20.30;99.90;;;;;;5072752;28;20279;-72
2022/11/24 10:38:20;;;;;;;10.37;2.57;;;20.30;99.90;;;;;;5028641;28;20193;-73
2022/11/24 10:40:50;;;;;;;9.97;1.93;;;20.30;99.90;;;;;;5065138;28;20180;-71
2022/11/24 10:43:17;;;;;;;6.57;1.90;;;20.20;99.90;;;;;;5072844;28;20514;-73
2022/11/24 10:45:45;;;;;;;9.67;2.13;;;20.20;99.90;;;;;;5073159;28;20280;-71
2022/11/24 10:48:24;;;;;;;9.23;2.27;;;20.10;99.90;;;;;;5073314;28;20221;-73
2022/11/24 10:50:56;;;;;;;9.13;2.27;;;20.10;99.90;;;;;;5072780;28;20665;-73
2022/11/24 10:53:33;;;;;;;11.43;2.87;;;20.10;99.90;;;;;;5072519;28;20181;-73
2022/11/24 10:56:04;;;;;;;13.77;2.23;;;20.00;99.90;;;;;;5059136;28;20180;-73
2022/11/24 10:58:39;;;;;;;9.97;1.93;;;19.90;99.90;;;;;;5051193;28;20184;-73
2022/11/24 11:01:28;;;;;;;10.27;2.47;;;19.90;99.90;;;;;;5052368;28;20553;-70
2022/11/24 11:04:00;;;;;;;12.00;2.77;;;19.80;99.90;;;;;;5058439;28;20191;-72
2022/11/24 11:06:27;;;;;;;7.90;2.00;;;19.90;99.90;;;;;;5076871;28;20224;-71
2022/11/24 11:09:07;;;;;;;8.00;2.30;;;19.80;99.90;;;;;;5077031;28;20170;-70
2022/11/24 11:11:38;;;;;;;13.93;2.40;;;19.80;99.90;;;;;;5076774;28;20658;-71
2022/11/24 11:14:07;;;;;;;7.33;2.20;;;19.80;99.90;;;;;;5092102;28;20187;-72
2022/11/24 11:16:41;;;;;;;9.57;2.50;;;19.80;99.90;;;;;;5076812;28;20263;-71
2022/11/24 11:19:40;;;;;;;13.37;2.63;;;19.80;99.90;;;;;;5077136;28;20196;-72
2022/11/24 11:22:34;;;;;;;11.60;2.73;;;19.80;99.90;;;;;;5076698;28;20180;-71
2022/11/24 11:25:25;;;;;;;14.10;2.17;;;19.80;99.90;;;;;;5064563;28;20188;-71
2022/11/24 11:28:30;;;;;;;13.10;2.60;;;19.80;99.90;;;;;;5076647;28;20554;-71
2022/11/24 11:31:00;;;;;;;10.83;2.43;;;19.80;99.90;;;;;;5076562;28;20175;-70
2022/11/24 11:33:31;;;;;;;13.07;2.90;;;19.80;99.90;;;;;;5076068;28;20182;-70
2022/11/24 11:36:09;;;;;;;11.03;2.47;;;19.80;99.90;;;;;;5076827;28;20238;-71
2022/11/24 11:38:39;;;;;;;12.47;2.80;;;19.80;99.90;;;;;;5076443;28;20183;-69
2022/11/24 11:41:18;;;;;;;12.37;1.90;;;19.80;99.90;;;;;;5076326;28;20186;-71
2022/11/24 11:43:50;;;;;;;10.70;2.30;;;19.80;99.90;;;;;;5076268;28;20190;-69
2022/11/24 11:46:17;;;;;;;12.53;2.30;;;19.80;99.90;;;;;;5076400;28;20279;-71
2022/11/24 11:48:46;;;;;;;12.03;2.57;;;19.80;99.90;;;;;;5076127;28;20173;-71
2022/11/24 11:51:47;;;;;;;13.63;2.80;;;19.80;99.90;;;;;;5076292;28;20200;-70
2022/11/24 11:54:23;;;;;;;11.30;2.53;;;19.80;99.90;;;;;;5075652;28;20480;-73
2022/11/24 11:57:02;;;;;;;8.70;2.10;;;19.70;99.90;;;;;;5076950;28;20174;-70
2022/11/24 12:00:02;;;;;;;11.73;2.37;;;19.70;99.90;;;;;;5091701;28;20198;-71
2022/11/24 12:03:02;;;;;;;10.30;2.43;;;19.60;99.90;;;;;;5067857;28;20187;-70
2022/11/24 12:05:51;;;;;;;13.17;2.80;;;19.50;99.90;;;;;;5036065;28;20225;-70
2022/11/24 12:08:47;;;;;;;15.17;2.83;;;19.50;99.90;;;;;;5036178;28;20219;-70
2022/11/24 12:11:52;;;;;;;12.33;2.90;;;19.40;99.90;;;;;;5027687;28;20539;-72
2022/11/24 12:14:32;;;;;;;15.60;2.60;;;19.30;99.90;;;;;;5068259;28;20190;-70
2022/11/24 12:17:08;;;;;;;11.53;3.07;;;19.30;99.90;;;;;;5075963;28;20711;-69
2022/11/24 12:19:54;;;;;;;9.20;2.23;;;19.40;99.90;;;;;;5076060;28;20168;-70
2022/11/24 12:22:36;;;;;;;9.50;2.20;;;19.50;99.90;;;;;;5076183;28;20728;-70
2022/11/24 12:25:31;;;;;;;14.83;2.87;;;19.50;99.90;;;;;;5075369;28;20179;-72
2022/11/24 12:28:19;;;;;;;7.77;2.20;;;19.40;99.90;;;;;;5076123;28;20267;-72
2022/11/24 12:31:06;;;;;;;9.87;2.43;;;19.50;99.90;;;;;;5075834;28;20251;-73
2022/11/24 12:33:36;;;;;;;9.40;2.13;;;19.50;99.90;;;;;;5075485;28;20187;-73
2022/11/24 12:36:23;;;;;;;12.10;2.57;;;19.50;99.90;;;;;;5075713;28;20639;-73
2022/11/24 12:39:06;;;;;;;17.73;2.40;;;19.50;99.90;;;;;;5075961;28;20276;-73
2022/11/24 12:41:59;;;;;;;11.90;2.53;;;19.50;99.90;;;;;;5075388;28;20180;-73
2022/11/24 12:44:47;;;;;;;15.47;2.90;;;19.40;99.90;;;;;;5075360;28;20227;-73
2022/11/24 12:47:39;;;;;;;11.90;2.83;;;19.30;99.90;;;;;;5075326;28;20207;-73
2022/11/24 12:50:19;;;;;;;12.10;2.80;;;19.30;99.90;;;;;;5075341;28;20179;-73
2022/11/24 12:53:13;;;;;;;13.03;2.73;;;19.40;99.90;;;;;;5074786;28;20258;-73
2022/11/24 12:55:43;;;;;;;13.33;2.60;;;19.30;99.90;;;;;;5075166;28;20174;-72
2022/11/24 12:58:22;;;;;;;9.43;2.50;;;19.10;99.90;;;;;;5075001;28;20172;-73
2022/11/24 13:01:26;;;;;;;6.23;2.03;;;19.10;99.90;;;;;;5075117;28;20176;-72
2022/11/24 13:04:17;;;;;;;9.60;2.20;;;19.00;99.90;;;;;;5055298;28;20181;-73
2022/11/24 13:06:56;;;;;;;11.80;2.73;;;19.10;99.90;;;;;;5074468;28;20220;-72
2022/11/24 13:09:24;;;;;;;11.60;2.90;;;19.00;99.90;;;;;;5074856;28;20183;-72
2022/11/24 13:12:12;;;;;;;10.40;2.37;;;19.00;99.90;;;;;;5074682;28;20176;-72
2022/11/24 13:14:49;;;;;;;10.43;2.37;;;19.10;99.90;;;;;;5074619;28;20184;-73
2022/11/24 13:17:31;;;;;;;9.80;2.37;;;19.10;99.90;;;;;;5074364;28;20265;-72